createdAt,value
2019-02-21T00:00:31.497Z,0
2019-02-21T00:01:26.311Z,0
2019-02-21T00:02:26.289Z,0
2019-02-21T00:03:26.283Z,0
2019-02-21T00:04:26.258Z,0
2019-02-21T00:05:26.248Z,0
2019-02-21T00:06:25.974Z,0
2019-02-21T00:07:26.308Z,0
2019-02-21T00:08:25.942Z,0
2019-02-21T00:09:26.176Z,0
2019-02-21T00:10:26.168Z,0
2019-02-21T00:11:26.134Z,0
2019-02-21T00:12:26.121Z,0
2019-02-21T00:13:26.108Z,0
2019-02-21T00:14:26.097Z,0
2019-02-21T00:15:25.819Z,0
2019-02-21T00:16:25.798Z,0
2019-02-21T00:17:26.033Z,0
2019-02-21T00:18:26.022Z,0
2019-02-21T00:19:26.021Z,0
2019-02-21T00:20:25.980Z,0
2019-02-21T00:21:25.975Z,0
2019-02-21T00:22:25.858Z,0
2019-02-21T00:23:25.931Z,0
2019-02-21T00:24:25.674Z,0
2019-02-21T00:25:25.665Z,0
2019-02-21T00:26:25.630Z,0
2019-02-21T00:27:25.664Z,0
2019-02-21T00:28:25.846Z,0
2019-02-21T00:29:25.827Z,0
2019-02-21T00:30:34.757Z,0
2019-02-21T00:31:25.801Z,0
2019-02-21T00:32:25.778Z,0
2019-02-21T00:33:25.764Z,0
2019-02-21T00:34:25.755Z,0
2019-02-21T00:35:25.726Z,0
2019-02-21T00:36:25.713Z,0
2019-02-21T00:37:25.689Z,0
2019-02-21T00:38:25.669Z,0
2019-02-21T00:39:25.660Z,0
2019-02-21T00:40:25.639Z,0
2019-02-21T00:41:25.625Z,0
2019-02-21T00:42:25.810Z,0
2019-02-21T00:43:25.593Z,0
2019-02-21T00:44:25.567Z,0
2019-02-21T00:45:25.559Z,0
2019-02-21T00:46:25.543Z,0
2019-02-21T00:47:25.525Z,0
2019-02-21T00:48:25.501Z,0
2019-02-21T00:49:25.503Z,0
2019-02-21T00:50:25.495Z,0
2019-02-21T00:51:25.196Z,0
2019-02-21T00:52:25.184Z,0
2019-02-21T00:53:25.449Z,0
2019-02-21T00:54:25.159Z,0
2019-02-21T00:55:27.753Z,0
2019-02-21T00:56:24.868Z,0
2019-02-21T00:57:25.347Z,0
2019-02-21T00:58:25.330Z,0
2019-02-21T00:59:25.314Z,0
2019-02-21T01:00:25.053Z,0
2019-02-21T01:01:28.007Z,0
2019-02-21T01:02:25.257Z,0
2019-02-21T01:03:25.241Z,0
2019-02-21T01:04:24.986Z,0
2019-02-21T01:05:24.966Z,0
2019-02-21T01:06:25.200Z,0
2019-02-21T01:07:24.677Z,0
2019-02-21T01:08:25.158Z,0
2019-02-21T01:09:25.139Z,0
2019-02-21T01:10:24.873Z,0
2019-02-21T01:11:24.658Z,0
2019-02-21T01:12:25.091Z,0
2019-02-21T01:13:25.146Z,0
2019-02-21T01:14:25.058Z,0
2019-02-21T01:15:25.036Z,0
2019-02-21T01:16:25.031Z,0
2019-02-21T01:17:25.008Z,0
2019-02-21T01:18:24.986Z,0
2019-02-21T01:19:24.977Z,0
2019-02-21T01:20:24.955Z,0
2019-02-21T01:21:24.934Z,0
2019-02-21T01:22:24.917Z,0
2019-02-21T01:23:24.898Z,0
2019-02-21T01:24:24.639Z,0
2019-02-21T01:25:24.644Z,0
2019-02-21T01:26:25.026Z,0
2019-02-21T01:27:24.847Z,0
2019-02-21T01:28:24.814Z,0
2019-02-21T01:29:24.662Z,0
2019-02-21T01:30:24.792Z,0
2019-02-21T01:31:24.524Z,0
2019-02-21T01:32:24.752Z,0
2019-02-21T01:33:24.521Z,0
2019-02-21T01:34:24.467Z,0
2019-02-21T01:35:24.694Z,0
2019-02-21T01:36:24.687Z,0
2019-02-21T01:37:24.664Z,0
2019-02-21T01:38:24.668Z,0
2019-02-21T01:39:24.632Z,0
2019-02-21T01:40:24.373Z,0
2019-02-21T01:41:24.595Z,0
2019-02-21T01:42:24.322Z,0
2019-02-21T01:43:24.559Z,0
2019-02-21T01:44:24.543Z,0
2019-02-21T01:45:24.526Z,0
2019-02-21T01:46:24.515Z,0
2019-02-21T01:47:24.492Z,0
2019-02-21T01:48:24.477Z,0
2019-02-21T01:49:24.464Z,0
2019-02-21T01:50:24.442Z,0
2019-02-21T01:51:24.183Z,0
2019-02-21T01:52:24.163Z,0
2019-02-21T01:53:24.420Z,0
2019-02-21T01:54:24.369Z,0
2019-02-21T01:55:24.357Z,0
2019-02-21T01:56:24.085Z,0
2019-02-21T01:57:24.077Z,0
2019-02-21T01:58:24.297Z,0
2019-02-21T01:59:24.386Z,0
2019-02-21T02:00:24.269Z,0
2019-02-21T02:01:24.283Z,0
2019-02-21T02:02:24.254Z,0
2019-02-21T02:03:24.216Z,0
2019-02-21T02:04:24.359Z,0
2019-02-21T02:05:24.187Z,0
2019-02-21T02:06:24.166Z,0
2019-02-21T02:07:23.897Z,0
2019-02-21T02:08:24.126Z,0
2019-02-21T02:09:24.110Z,0
2019-02-21T02:10:23.864Z,0
2019-02-21T02:11:24.086Z,0
2019-02-21T02:12:24.159Z,0
2019-02-21T02:13:31.905Z,0
2019-02-21T02:14:24.030Z,0
2019-02-21T02:15:24.041Z,0
2019-02-21T02:16:24.008Z,0
2019-02-21T02:17:23.998Z,0
2019-02-21T02:18:23.962Z,0
2019-02-21T02:19:23.938Z,0
2019-02-21T02:20:23.920Z,0
2019-02-21T02:21:23.901Z,0
2019-02-21T02:22:23.887Z,0
2019-02-21T02:23:23.865Z,0
2019-02-21T02:24:23.945Z,0
2019-02-21T02:25:23.599Z,0
2019-02-21T02:26:23.811Z,0
2019-02-21T02:27:23.303Z,0
2019-02-21T02:28:23.783Z,0
2019-02-21T02:29:23.761Z,0
2019-02-21T02:30:23.766Z,0
2019-02-21T02:31:30.173Z,0
2019-02-21T02:32:23.720Z,0
2019-02-21T02:33:23.722Z,0
2019-02-21T02:34:23.688Z,0
2019-02-21T02:35:23.688Z,0
2019-02-21T02:36:23.415Z,0
2019-02-21T02:37:23.786Z,0
2019-02-21T02:38:23.368Z,0
2019-02-21T02:39:23.594Z,0
2019-02-21T02:40:23.613Z,0
2019-02-21T02:41:23.570Z,0
2019-02-21T02:42:23.538Z,0
2019-02-21T02:43:23.521Z,0
2019-02-21T02:44:23.518Z,0
2019-02-21T02:45:23.500Z,0
2019-02-21T02:46:23.489Z,0
2019-02-21T02:47:23.451Z,0
2019-02-21T02:48:23.190Z,0
2019-02-21T02:49:23.178Z,0
2019-02-21T02:50:23.442Z,0
2019-02-21T02:51:23.424Z,0
2019-02-21T02:52:23.383Z,0
2019-02-21T02:53:23.340Z,0
2019-02-21T02:54:23.176Z,0
2019-02-21T02:55:23.322Z,0
2019-02-21T02:56:23.304Z,0
2019-02-21T02:57:23.298Z,0
2019-02-21T02:58:23.266Z,0
2019-02-21T02:59:23.255Z,0
2019-02-21T03:00:23.242Z,0
2019-02-21T03:01:34.285Z,0
2019-02-21T03:02:22.942Z,0
2019-02-21T03:03:23.178Z,0
2019-02-21T03:04:23.270Z,0
2019-02-21T03:05:22.907Z,0
2019-02-21T03:06:23.129Z,0
2019-02-21T03:07:23.111Z,0
2019-02-21T03:08:23.090Z,0
2019-02-21T03:09:23.085Z,0
2019-02-21T03:10:23.050Z,0
2019-02-21T03:11:23.077Z,0
2019-02-21T03:12:23.041Z,0
2019-02-21T03:13:22.999Z,0
2019-02-21T03:14:22.999Z,0
2019-02-21T03:15:22.975Z,0
2019-02-21T03:16:22.699Z,0
2019-02-21T03:17:22.933Z,0
2019-02-21T03:18:22.954Z,0
2019-02-21T03:19:22.898Z,0
2019-02-21T03:20:22.883Z,0
2019-02-21T03:21:22.737Z,0
2019-02-21T03:22:22.854Z,0
2019-02-21T03:23:22.080Z,0
2019-02-21T03:24:22.807Z,0
2019-02-21T03:25:22.906Z,0
2019-02-21T03:26:22.793Z,0
2019-02-21T03:27:22.759Z,0
2019-02-21T03:28:22.503Z,0
2019-02-21T03:29:22.724Z,0
2019-02-21T03:30:22.754Z,0
2019-02-21T03:31:22.454Z,0
2019-02-21T03:32:22.712Z,0
2019-02-21T03:33:22.676Z,0
2019-02-21T03:34:22.701Z,0
2019-02-21T03:35:22.670Z,0
2019-02-21T03:36:22.394Z,0
2019-02-21T03:37:22.628Z,0
2019-02-21T03:38:22.709Z,0
2019-02-21T03:39:22.568Z,0
2019-02-21T03:40:22.547Z,0
2019-02-21T03:41:22.264Z,0
2019-02-21T03:42:22.267Z,0
2019-02-21T03:43:22.494Z,0
2019-02-21T03:44:22.465Z,0
2019-02-21T03:45:22.469Z,0
2019-02-21T03:46:22.450Z,0
2019-02-21T03:47:22.415Z,0
2019-02-21T03:48:22.410Z,0
2019-02-21T03:49:22.373Z,0
2019-02-21T03:50:22.251Z,0
2019-02-21T03:51:22.343Z,0
2019-02-21T03:52:22.326Z,0
2019-02-21T03:53:22.062Z,0
2019-02-21T03:54:22.293Z,0
2019-02-21T03:55:22.281Z,0
2019-02-21T03:56:22.006Z,0
2019-02-21T03:57:22.238Z,0
2019-02-21T03:58:22.223Z,0
2019-02-21T03:59:22.248Z,0
2019-02-21T04:00:21.959Z,0
2019-02-21T04:01:22.243Z,0
2019-02-21T04:02:21.966Z,0
2019-02-21T04:03:21.915Z,0
2019-02-21T04:04:22.148Z,0
2019-02-21T04:05:22.111Z,0
2019-02-21T04:06:22.094Z,0
2019-02-21T04:07:24.485Z,0
2019-02-21T04:08:21.805Z,0
2019-02-21T04:09:21.792Z,0
2019-02-21T04:10:22.016Z,0
2019-02-21T04:11:22.005Z,0
2019-02-21T04:12:22.002Z,0
2019-02-21T04:13:22.528Z,0
2019-02-21T04:14:23.546Z,0
2019-02-21T04:15:21.937Z,0
2019-02-21T04:16:21.939Z,0
2019-02-21T04:17:22.003Z,0
2019-02-21T04:18:21.923Z,0
2019-02-21T04:19:21.887Z,0
2019-02-21T04:20:21.849Z,0
2019-02-21T04:21:21.842Z,0
2019-02-21T04:22:21.817Z,0
2019-02-21T04:23:21.816Z,0
2019-02-21T04:24:21.803Z,0
2019-02-21T04:25:21.777Z,0
2019-02-21T04:26:21.521Z,0
2019-02-21T04:27:21.741Z,0
2019-02-21T04:28:21.727Z,0
2019-02-21T04:29:21.704Z,0
2019-02-21T04:30:21.695Z,0
2019-02-21T04:31:21.669Z,0
2019-02-21T04:32:24.278Z,0
2019-02-21T04:33:21.653Z,0
2019-02-21T04:34:21.627Z,0
2019-02-21T04:35:21.371Z,0
2019-02-21T04:36:23.345Z,0
2019-02-21T04:37:21.585Z,0
2019-02-21T04:38:21.326Z,0
2019-02-21T04:39:21.391Z,0
2019-02-21T04:40:21.280Z,0
2019-02-21T04:41:21.269Z,0
2019-02-21T04:42:21.573Z,0
2019-02-21T04:43:21.497Z,0
2019-02-21T04:44:21.479Z,0
2019-02-21T04:45:21.439Z,0
2019-02-21T04:46:21.428Z,0
2019-02-21T04:47:21.407Z,0
2019-02-21T04:48:21.445Z,0
2019-02-21T04:49:21.388Z,0
2019-02-21T04:50:21.105Z,0
2019-02-21T04:51:21.347Z,0
2019-02-21T04:52:21.321Z,0
2019-02-21T04:53:21.330Z,0
2019-02-21T04:54:21.290Z,0
2019-02-21T04:55:21.028Z,0
2019-02-21T04:56:21.253Z,0
2019-02-21T04:57:21.239Z,0
2019-02-21T04:58:21.255Z,0
2019-02-21T04:59:21.272Z,0
2019-02-21T05:00:21.191Z,0
2019-02-21T05:01:21.289Z,0
2019-02-21T05:02:33.148Z,0
2019-02-21T05:03:21.148Z,0
2019-02-21T05:04:21.128Z,0
2019-02-21T05:05:21.102Z,0
2019-02-21T05:06:21.086Z,0
2019-02-21T05:07:21.074Z,0
2019-02-21T05:08:21.060Z,0
2019-02-21T05:09:20.796Z,0
2019-02-21T05:10:21.019Z,0
2019-02-21T05:11:21.063Z,0
2019-02-21T05:12:20.990Z,0
2019-02-21T05:13:20.735Z,0
2019-02-21T05:14:20.955Z,0
2019-02-21T05:15:21.212Z,0
2019-02-21T05:16:20.922Z,0
2019-02-21T05:17:20.915Z,0
2019-02-21T05:18:20.978Z,0
2019-02-21T05:19:20.877Z,0
2019-02-21T05:20:20.855Z,0
2019-02-21T05:21:20.636Z,0
2019-02-21T05:22:20.828Z,0
2019-02-21T05:23:20.809Z,0
2019-02-21T05:24:20.300Z,0
2019-02-21T05:25:20.275Z,0
2019-02-21T05:26:20.513Z,0
2019-02-21T05:27:20.765Z,0
2019-02-21T05:28:20.734Z,0
2019-02-21T05:29:20.461Z,0
2019-02-21T05:30:21.177Z,0
2019-02-21T05:31:20.700Z,0
2019-02-21T05:32:20.659Z,0
2019-02-21T05:33:20.642Z,0
2019-02-21T05:34:20.374Z,0
2019-02-21T05:35:20.678Z,0
2019-02-21T05:36:20.369Z,0
2019-02-21T05:37:20.580Z,0
2019-02-21T05:38:20.584Z,0
2019-02-21T05:39:20.553Z,0
2019-02-21T05:40:20.525Z,0
2019-02-21T05:41:20.540Z,0
2019-02-21T05:42:20.509Z,0
2019-02-21T05:43:20.493Z,0
2019-02-21T05:44:20.459Z,0
2019-02-21T05:45:20.447Z,0
2019-02-21T05:46:20.432Z,4
2019-02-21T05:47:20.161Z,4
2019-02-21T05:48:20.420Z,4
2019-02-21T05:49:20.382Z,4
2019-02-21T05:50:20.365Z,4
2019-02-21T05:51:20.101Z,8
2019-02-21T05:52:20.332Z,8
2019-02-21T05:53:20.071Z,12
2019-02-21T05:54:20.342Z,12
2019-02-21T05:55:20.341Z,12
2019-02-21T05:56:20.269Z,16
2019-02-21T05:57:20.261Z,16
2019-02-21T05:58:19.997Z,20
2019-02-21T05:59:20.242Z,24
2019-02-21T06:00:20.213Z,28
2019-02-21T06:01:20.212Z,36
2019-02-21T06:02:20.176Z,40
2019-02-21T06:03:20.149Z,48
2019-02-21T06:04:21.950Z,52
2019-02-21T06:05:21.891Z,56
2019-02-21T06:06:21.892Z,64
2019-02-21T06:07:20.097Z,72
2019-02-21T06:08:20.066Z,84
2019-02-21T06:09:20.067Z,96
2019-02-21T06:10:20.043Z,108
2019-02-21T06:11:22.973Z,128
2019-02-21T06:12:20.004Z,140
2019-02-21T06:13:19.490Z,156
2019-02-21T06:14:19.968Z,176
2019-02-21T06:15:23.022Z,196
2019-02-21T06:16:19.933Z,216
2019-02-21T06:17:19.920Z,236
2019-02-21T06:18:22.500Z,260
2019-02-21T06:19:19.889Z,284
2019-02-21T06:20:22.681Z,312
2019-02-21T06:21:20.010Z,336
2019-02-21T06:22:19.586Z,364
2019-02-21T06:23:19.819Z,388
2019-02-21T06:24:19.810Z,412
2019-02-21T06:25:19.819Z,444
2019-02-21T06:26:19.802Z,476
2019-02-21T06:27:19.790Z,504
2019-02-21T06:28:19.807Z,528
2019-02-21T06:29:19.474Z,556
2019-02-21T06:30:19.706Z,576
2019-02-21T06:31:19.690Z,592
2019-02-21T06:32:21.743Z,600
2019-02-21T06:33:19.656Z,616
2019-02-21T06:34:19.653Z,620
2019-02-21T06:35:19.719Z,628
2019-02-21T06:36:19.625Z,648
2019-02-21T06:37:20.054Z,672
2019-02-21T06:38:19.326Z,696
2019-02-21T06:39:19.558Z,716
2019-02-21T06:40:19.552Z,736
2019-02-21T06:41:19.564Z,756
2019-02-21T06:42:19.511Z,764
2019-02-21T06:43:19.526Z,768
2019-02-21T06:44:19.497Z,756
2019-02-21T06:45:20.657Z,752
2019-02-21T06:46:21.036Z,776
2019-02-21T06:47:19.433Z,804
2019-02-21T06:48:19.163Z,824
2019-02-21T06:49:19.145Z,844
2019-02-21T06:50:31.310Z,848
2019-02-21T06:51:19.365Z,844
2019-02-21T06:52:20.511Z,864
2019-02-21T06:53:19.342Z,896
2019-02-21T06:54:19.069Z,920
2019-02-21T06:55:20.571Z,956
2019-02-21T06:56:19.384Z,1008
2019-02-21T06:57:19.017Z,1048
2019-02-21T06:58:19.250Z,1068
2019-02-21T06:59:19.232Z,1084
2019-02-21T07:00:19.215Z,1136
2019-02-21T07:01:32.084Z,1236
2019-02-21T07:02:20.853Z,1332
2019-02-21T07:03:23.233Z,1464
2019-02-21T07:04:19.146Z,1568
2019-02-21T07:05:18.882Z,1696
2019-02-21T07:06:31.345Z,1856
2019-02-21T07:07:19.096Z,2008
2019-02-21T07:08:19.085Z,2172
2019-02-21T07:09:19.073Z,2336
2019-02-21T07:10:18.836Z,2540
2019-02-21T07:11:19.039Z,2760
2019-02-21T07:12:18.779Z,2940
2019-02-21T07:13:30.712Z,3148
2019-02-21T07:14:18.527Z,3260
2019-02-21T07:15:19.991Z,3396
2019-02-21T07:16:20.107Z,3500
2019-02-21T07:17:18.965Z,3536
2019-02-21T07:18:18.917Z,3556
2019-02-21T07:19:18.653Z,3556
2019-02-21T07:20:20.219Z,3504
2019-02-21T07:21:20.259Z,3472
2019-02-21T07:22:27.170Z,3492
2019-02-21T07:23:18.841Z,3528
2019-02-21T07:24:20.613Z,3604
2019-02-21T07:25:18.573Z,3564
2019-02-21T07:26:18.788Z,3420
2019-02-21T07:27:18.789Z,3228
2019-02-21T07:28:22.943Z,3048
2019-02-21T07:29:18.744Z,2860
2019-02-21T07:30:28.068Z,2740
2019-02-21T07:31:32.578Z,2756
2019-02-21T07:32:18.701Z,2812
2019-02-21T07:33:30.231Z,2920
2019-02-21T07:34:18.684Z,2972
2019-02-21T07:35:18.657Z,2968
2019-02-21T07:36:18.643Z,2952
2019-02-21T07:37:25.810Z,3072
2019-02-21T07:38:19.738Z,3304
2019-02-21T07:39:35.480Z,3592
2019-02-21T07:40:27.162Z,3760
2019-02-21T07:41:21.046Z,3916
2019-02-21T07:42:18.569Z,4112
2019-02-21T07:43:24.795Z,4312
2019-02-21T07:44:19.708Z,4444
2019-02-21T07:45:18.868Z,4556
2019-02-21T07:46:18.482Z,4676
2019-02-21T07:47:18.220Z,4844
2019-02-21T07:48:18.453Z,5060
2019-02-21T07:49:18.439Z,5368
2019-02-21T07:50:18.172Z,5580
2019-02-21T07:51:20.755Z,5720
2019-02-21T07:52:18.387Z,5752
2019-02-21T07:53:18.383Z,5768
2019-02-21T07:54:18.354Z,5764
2019-02-21T07:55:18.363Z,5728
2019-02-21T07:56:18.348Z,5572
2019-02-21T07:57:18.067Z,5264
2019-02-21T07:58:18.304Z,4860
2019-02-21T07:59:19.367Z,4504
2019-02-21T08:00:18.276Z,4236
2019-02-21T08:01:19.931Z,4084
2019-02-21T08:02:20.775Z,4028
2019-02-21T08:03:29.445Z,4068
2019-02-21T08:04:18.209Z,4180
2019-02-21T08:05:18.203Z,4344
2019-02-21T08:06:19.894Z,4512
2019-02-21T08:07:18.178Z,4684
2019-02-21T08:08:18.156Z,4828
2019-02-21T08:09:18.919Z,4972
2019-02-21T08:10:18.115Z,5160
2019-02-21T08:11:17.863Z,5416
2019-02-21T08:12:18.094Z,5724
2019-02-21T08:13:18.071Z,6040
2019-02-21T08:14:20.875Z,6336
2019-02-21T08:15:18.819Z,6564
2019-02-21T08:16:19.532Z,6756
2019-02-21T08:17:20.989Z,6888
2019-02-21T08:18:18.009Z,6992
2019-02-21T08:19:17.987Z,7064
2019-02-21T08:20:18.023Z,7108
2019-02-21T08:21:17.715Z,7200
2019-02-21T08:22:17.947Z,7348
2019-02-21T08:23:18.298Z,7500
2019-02-21T08:24:17.931Z,7672
2019-02-21T08:25:19.214Z,7800
2019-02-21T08:26:19.958Z,7784
2019-02-21T08:27:17.874Z,7680
2019-02-21T08:28:17.877Z,7536
2019-02-21T08:29:20.456Z,7356
2019-02-21T08:30:17.912Z,7164
2019-02-21T08:31:17.812Z,6968
2019-02-21T08:32:17.810Z,6780
2019-02-21T08:33:17.792Z,6604
2019-02-21T08:34:17.521Z,6436
2019-02-21T08:35:17.509Z,6288
2019-02-21T08:36:17.744Z,6200
2019-02-21T08:37:17.903Z,6112
2019-02-21T08:38:19.385Z,6012
2019-02-21T08:39:17.711Z,5956
2019-02-21T08:40:17.711Z,5912
2019-02-21T08:41:19.430Z,5892
2019-02-21T08:42:17.699Z,5880
2019-02-21T08:43:17.661Z,5864
2019-02-21T08:44:17.638Z,5868
2019-02-21T08:45:20.184Z,5936
2019-02-21T08:46:20.723Z,6012
2019-02-21T08:47:17.600Z,6036
2019-02-21T08:48:20.348Z,6060
2019-02-21T08:49:17.580Z,6116
2019-02-21T08:50:17.566Z,6124
2019-02-21T08:51:18.352Z,6072
2019-02-21T08:52:17.533Z,5864
2019-02-21T08:53:20.164Z,5404
2019-02-21T08:54:18.699Z,4880
2019-02-21T08:55:17.483Z,4484
2019-02-21T08:56:17.282Z,4124
2019-02-21T08:57:19.489Z,3672
2019-02-21T08:58:17.452Z,3268
2019-02-21T08:59:17.180Z,2996
2019-02-21T09:00:18.179Z,2916
2019-02-21T09:01:17.150Z,3004
2019-02-21T09:02:17.141Z,3060
2019-02-21T09:03:20.463Z,3024
2019-02-21T09:04:33.528Z,2892
2019-02-21T09:05:17.395Z,2940
2019-02-21T09:06:17.336Z,3392
2019-02-21T09:07:17.324Z,3852
2019-02-21T09:08:18.947Z,4664
2019-02-21T09:09:17.342Z,5528
2019-02-21T09:10:17.300Z,5708
2019-02-21T09:11:19.579Z,5820
2019-02-21T09:12:17.325Z,5744
2019-02-21T09:13:17.049Z,5236
2019-02-21T09:14:17.076Z,4736
2019-02-21T09:15:17.057Z,4428
2019-02-21T09:16:20.170Z,4336
2019-02-21T09:17:17.338Z,4404
2019-02-21T09:18:17.309Z,4504
2019-02-21T09:19:17.295Z,4692
2019-02-21T09:20:17.325Z,4720
2019-02-21T09:21:17.311Z,4592
2019-02-21T09:22:17.048Z,4572
2019-02-21T09:23:18.323Z,4628
2019-02-21T09:24:42.353Z,4992
2019-02-21T09:25:17.054Z,5376
2019-02-21T09:26:17.089Z,6300
2019-02-21T09:27:17.311Z,6980
2019-02-21T09:28:18.276Z,7032
2019-02-21T09:29:17.087Z,6928
2019-02-21T09:30:17.319Z,6664
2019-02-21T09:31:17.299Z,6532
2019-02-21T09:32:17.352Z,6712
2019-02-21T09:33:26.343Z,7216
2019-02-21T09:34:27.972Z,7256
2019-02-21T09:35:17.087Z,7004
2019-02-21T09:36:17.317Z,6624
2019-02-21T09:37:17.065Z,6444
2019-02-21T09:38:17.334Z,6400
2019-02-21T09:39:18.281Z,6152
2019-02-21T09:40:18.093Z,5704
2019-02-21T09:41:17.345Z,5560
2019-02-21T09:42:17.333Z,5636
2019-02-21T09:43:17.316Z,5824
2019-02-21T09:44:18.186Z,6240
2019-02-21T09:45:19.498Z,6692
2019-02-21T09:46:17.331Z,6880
2019-02-21T09:47:17.335Z,6872
2019-02-21T09:48:19.310Z,6344
2019-02-21T09:49:17.359Z,5552
2019-02-21T09:50:17.347Z,4928
2019-02-21T09:51:18.230Z,4776
2019-02-21T09:52:17.311Z,5016
2019-02-21T09:53:17.344Z,5360
2019-02-21T09:54:19.062Z,5388
2019-02-21T09:55:17.311Z,5308
2019-02-21T09:56:17.344Z,5216
2019-02-21T09:57:20.581Z,5040
2019-02-21T09:58:17.356Z,4804
2019-02-21T09:59:17.302Z,4680
2019-02-21T10:00:17.380Z,4648
2019-02-21T10:01:17.039Z,4704
2019-02-21T10:02:17.263Z,5000
2019-02-21T10:03:17.261Z,5232
2019-02-21T10:04:17.248Z,5608
2019-02-21T10:05:17.224Z,5964
2019-02-21T10:06:16.764Z,6128
2019-02-21T10:07:17.198Z,6280
2019-02-21T10:08:17.241Z,6596
2019-02-21T10:09:17.178Z,6828
2019-02-21T10:10:17.172Z,7044
2019-02-21T10:11:18.454Z,7236
2019-02-21T10:12:17.159Z,7548
2019-02-21T10:13:18.109Z,8032
2019-02-21T10:14:17.133Z,8664
2019-02-21T10:15:17.099Z,9364
2019-02-21T10:16:17.092Z,10028
2019-02-21T10:17:16.822Z,10624
2019-02-21T10:18:16.845Z,11140
2019-02-21T10:19:17.040Z,11448
2019-02-21T10:20:17.040Z,11624
2019-02-21T10:21:17.015Z,11652
2019-02-21T10:22:17.016Z,11428
2019-02-21T10:23:16.999Z,10796
2019-02-21T10:24:16.998Z,10156
2019-02-21T10:25:16.961Z,9636
2019-02-21T10:26:16.974Z,9088
2019-02-21T10:27:16.944Z,8572
2019-02-21T10:28:16.931Z,8328
2019-02-21T10:29:16.927Z,8420
2019-02-21T10:30:18.245Z,8848
2019-02-21T10:31:16.695Z,9144
2019-02-21T10:32:16.888Z,9360
2019-02-21T10:33:16.869Z,9632
2019-02-21T10:34:16.860Z,9820
2019-02-21T10:35:16.850Z,10132
2019-02-21T10:36:16.840Z,10152
2019-02-21T10:37:16.580Z,10084
2019-02-21T10:38:16.830Z,9812
2019-02-21T10:39:16.800Z,9412
2019-02-21T10:40:16.799Z,8988
2019-02-21T10:41:16.527Z,8504
2019-02-21T10:42:16.804Z,7996
2019-02-21T10:43:16.805Z,7388
2019-02-21T10:44:16.753Z,6628
2019-02-21T10:45:16.730Z,6276
2019-02-21T10:46:16.725Z,6256
2019-02-21T10:47:16.709Z,6248
2019-02-21T10:48:16.714Z,6064
2019-02-21T10:49:16.697Z,6072
2019-02-21T10:50:18.835Z,6240
2019-02-21T10:51:16.704Z,6008
2019-02-21T10:52:16.406Z,5296
2019-02-21T10:53:16.395Z,4964
2019-02-21T10:54:16.629Z,4780
2019-02-21T10:55:16.617Z,4584
2019-02-21T10:56:16.608Z,4512
2019-02-21T10:57:16.596Z,4500
2019-02-21T10:58:16.591Z,4668
2019-02-21T10:59:16.327Z,5244
2019-02-21T11:00:16.563Z,5988
2019-02-21T11:01:16.562Z,6548
2019-02-21T11:02:16.544Z,6632
2019-02-21T11:03:16.275Z,6176
2019-02-21T11:04:16.260Z,5904
2019-02-21T11:05:16.496Z,5784
2019-02-21T11:06:16.499Z,5616
2019-02-21T11:07:16.476Z,5456
2019-02-21T11:08:16.460Z,5404
2019-02-21T11:09:16.196Z,5500
2019-02-21T11:10:19.005Z,5640
2019-02-21T11:11:17.185Z,5800
2019-02-21T11:12:16.165Z,6092
2019-02-21T11:13:16.408Z,6436
2019-02-21T11:14:16.170Z,7068
2019-02-21T11:15:15.886Z,7896
2019-02-21T11:16:16.369Z,8500
2019-02-21T11:17:16.361Z,8784
2019-02-21T11:18:16.350Z,8796
2019-02-21T11:19:16.091Z,8424
2019-02-21T11:20:16.318Z,7764
2019-02-21T11:21:16.313Z,7196
2019-02-21T11:22:16.302Z,6864
2019-02-21T11:23:16.438Z,6312
2019-02-21T11:24:16.275Z,5564
2019-02-21T11:25:16.259Z,5048
2019-02-21T11:26:17.290Z,4856
2019-02-21T11:27:16.232Z,4768
2019-02-21T11:28:16.224Z,4536
2019-02-21T11:29:16.217Z,3884
2019-02-21T11:30:16.197Z,3372
2019-02-21T11:31:15.943Z,3256
2019-02-21T11:32:15.922Z,3580
2019-02-21T11:33:16.171Z,4008
2019-02-21T11:34:16.152Z,4256
2019-02-21T11:35:15.894Z,4328
2019-02-21T11:36:15.878Z,4236
2019-02-21T11:37:16.122Z,4200
2019-02-21T11:38:16.163Z,4140
2019-02-21T11:39:15.842Z,3976
2019-02-21T11:40:16.082Z,4144
2019-02-21T11:41:16.077Z,4356
2019-02-21T11:42:16.055Z,4796
2019-02-21T11:43:15.795Z,5048
2019-02-21T11:44:16.029Z,4968
2019-02-21T11:45:16.017Z,4608
2019-02-21T11:46:16.012Z,4340
2019-02-21T11:47:15.995Z,4248
2019-02-21T11:48:16.287Z,4176
2019-02-21T11:49:15.975Z,3860
2019-02-21T11:50:15.957Z,3396
2019-02-21T11:51:15.946Z,3228
2019-02-21T11:52:17.298Z,3252
2019-02-21T11:53:15.932Z,3288
2019-02-21T11:54:26.680Z,3064
2019-02-21T11:55:15.939Z,2708
2019-02-21T11:56:18.196Z,2352
2019-02-21T11:57:15.370Z,2156
2019-02-21T11:58:15.859Z,2096
2019-02-21T11:59:18.546Z,2244
2019-02-21T12:00:15.588Z,2500
2019-02-21T12:01:15.812Z,2468
2019-02-21T12:02:15.807Z,2172
2019-02-21T12:03:15.798Z,2304
2019-02-21T12:04:15.779Z,2680
2019-02-21T12:05:35.801Z,3340
2019-02-21T12:06:15.528Z,3500
2019-02-21T12:07:15.610Z,3384
2019-02-21T12:08:15.479Z,3012
2019-02-21T12:09:15.478Z,2988
2019-02-21T12:10:15.734Z,3324
2019-02-21T12:11:15.713Z,3488
2019-02-21T12:12:17.646Z,3412
2019-02-21T12:13:15.660Z,3184
2019-02-21T12:14:15.664Z,3080
2019-02-21T12:15:15.409Z,3068
2019-02-21T12:16:15.645Z,2908
2019-02-21T12:17:15.620Z,2688
2019-02-21T12:18:15.606Z,2688
2019-02-21T12:19:15.422Z,2764
2019-02-21T12:20:15.578Z,2696
2019-02-21T12:21:15.639Z,2716
2019-02-21T12:22:15.545Z,2760
2019-02-21T12:23:17.629Z,2596
2019-02-21T12:24:15.522Z,2460
2019-02-21T12:25:15.508Z,2416
2019-02-21T12:26:15.244Z,2536
2019-02-21T12:27:15.475Z,2732
2019-02-21T12:28:15.217Z,2664
2019-02-21T12:29:14.961Z,2604
2019-02-21T12:30:15.434Z,2588
2019-02-21T12:31:15.424Z,2496
2019-02-21T12:32:15.416Z,2532
2019-02-21T12:33:15.400Z,2600
2019-02-21T12:34:15.393Z,2716
2019-02-21T12:35:15.367Z,2904
2019-02-21T12:36:15.358Z,2820
2019-02-21T12:37:15.350Z,2412
2019-02-21T12:38:14.830Z,2404
2019-02-21T12:39:15.341Z,2912
2019-02-21T12:40:15.067Z,3112
2019-02-21T12:41:15.043Z,2940
2019-02-21T12:42:15.279Z,2756
2019-02-21T12:43:15.019Z,3032
2019-02-21T12:44:15.284Z,3344
2019-02-21T12:45:15.259Z,3264
2019-02-21T12:46:15.319Z,3404
2019-02-21T12:47:15.233Z,3624
2019-02-21T12:48:14.944Z,3872
2019-02-21T12:49:17.586Z,3872
2019-02-21T12:50:15.170Z,3728
2019-02-21T12:51:15.165Z,3416
2019-02-21T12:52:15.162Z,3012
2019-02-21T12:53:15.134Z,2612
2019-02-21T12:54:15.147Z,2460
2019-02-21T12:55:26.383Z,2388
2019-02-21T12:56:14.853Z,2412
2019-02-21T12:57:15.076Z,2668
2019-02-21T12:58:15.068Z,2844
2019-02-21T12:59:14.802Z,3048
2019-02-21T13:00:15.049Z,3060
2019-02-21T13:01:15.030Z,2972
2019-02-21T13:02:15.015Z,2484
2019-02-21T13:03:15.004Z,2204
2019-02-21T13:04:14.735Z,2296
2019-02-21T13:05:14.967Z,2328
2019-02-21T13:06:14.960Z,2444
2019-02-21T13:07:14.939Z,2712
2019-02-21T13:08:14.929Z,3028
2019-02-21T13:09:14.919Z,2952
2019-02-21T13:10:14.912Z,2456
2019-02-21T13:11:14.892Z,2120
2019-02-21T13:12:14.642Z,2064
2019-02-21T13:13:14.875Z,2240
2019-02-21T13:14:14.856Z,2676
2019-02-21T13:15:14.843Z,3128
2019-02-21T13:16:14.834Z,3420
2019-02-21T13:17:14.559Z,3740
2019-02-21T13:18:22.938Z,4380
2019-02-21T13:19:14.780Z,4436
2019-02-21T13:20:14.770Z,3884
2019-02-21T13:21:14.752Z,3608
2019-02-21T13:22:14.871Z,3648
2019-02-21T13:23:14.500Z,3892
2019-02-21T13:24:14.721Z,4236
2019-02-21T13:25:14.709Z,4592
2019-02-21T13:26:14.684Z,4744
2019-02-21T13:27:14.694Z,4888
2019-02-21T13:28:14.733Z,5116
2019-02-21T13:29:14.654Z,5568
2019-02-21T13:30:14.394Z,6120
2019-02-21T13:31:14.632Z,6400
2019-02-21T13:32:14.121Z,6792
2019-02-21T13:33:14.589Z,7312
2019-02-21T13:34:14.348Z,7932
2019-02-21T13:35:14.583Z,8584
2019-02-21T13:36:14.323Z,8516
2019-02-21T13:37:14.545Z,8044
2019-02-21T13:38:14.525Z,7388
2019-02-21T13:39:14.272Z,6880
2019-02-21T13:40:14.273Z,6876
2019-02-21T13:41:14.491Z,7084
2019-02-21T13:42:14.228Z,7064
2019-02-21T13:43:14.210Z,7032
2019-02-21T13:44:14.467Z,6840
2019-02-21T13:45:17.123Z,6600
2019-02-21T13:46:14.179Z,6532
2019-02-21T13:47:14.157Z,6628
2019-02-21T13:48:14.406Z,6612
2019-02-21T13:49:14.472Z,6720
2019-02-21T13:50:14.401Z,6956
2019-02-21T13:51:14.381Z,7060
2019-02-21T13:52:14.435Z,7020
2019-02-21T13:53:14.341Z,6928
2019-02-21T13:54:14.328Z,6760
2019-02-21T13:55:14.328Z,6604
2019-02-21T13:56:14.340Z,6484